createdAt,value
2022-10-07T00:00:19.695Z,8.53
2022-10-07T00:02:51.029Z,7.93
2022-10-07T00:05:22.123Z,5.70
2022-10-07T00:07:54.805Z,6.33
2022-10-07T00:10:23.628Z,6.07
2022-10-07T00:12:52.105Z,10.23
2022-10-07T00:15:24.507Z,6.43
2022-10-07T00:17:57.082Z,6.63
2022-10-07T00:20:27.894Z,6.13
2022-10-07T00:22:56.330Z,6.70
2022-10-07T00:25:24.443Z,8.00
2022-10-07T00:27:53.118Z,9.17
2022-10-07T00:30:23.413Z,9.40
2022-10-07T00:32:51.694Z,7.30
2022-10-07T00:35:26.206Z,6.60
2022-10-07T00:37:59.077Z,6.93
2022-10-07T00:40:32.874Z,7.07
2022-10-07T00:43:20.615Z,6.47
2022-10-07T00:45:51.775Z,5.43
2022-10-07T00:48:27.052Z,5.47
2022-10-07T00:51:00.822Z,5.83
2022-10-07T00:53:35.560Z,5.60
2022-10-07T00:56:04.693Z,6.40
2022-10-07T00:58:42.552Z,7.47
2022-10-07T01:01:12.208Z,6.37
2022-10-07T01:03:43.804Z,6.53
2022-10-07T01:06:12.082Z,6.57
2022-10-07T01:08:41.077Z,7.07
2022-10-07T01:11:36.854Z,7.87
2022-10-07T01:14:30.623Z,7.90
2022-10-07T01:17:36.449Z,6.60
2022-10-07T01:20:25.548Z,7.53
2022-10-07T01:23:34.887Z,5.93
2022-10-07T01:26:33.288Z,6.50
2022-10-07T01:29:28.585Z,6.27
2022-10-07T01:32:18.164Z,7.23
2022-10-07T01:34:49.934Z,7.53
2022-10-07T01:37:23.065Z,5.67
2022-10-07T01:40:08.223Z,7.40
2022-10-07T01:42:39.491Z,9.47
2022-10-07T01:45:21.350Z,6.43
2022-10-07T01:47:54.222Z,6.27
2022-10-07T01:50:30.253Z,6.87
2022-10-07T01:53:39.011Z,5.83
2022-10-07T01:56:46.901Z,5.43
2022-10-07T01:59:40.816Z,5.63
2022-10-07T02:02:30.725Z,6.57
2022-10-07T02:05:27.167Z,7.03
2022-10-07T02:08:21.387Z,6.60
2022-10-07T02:11:30.407Z,6.30
2022-10-07T02:14:24.205Z,6.77
2022-10-07T02:16:59.724Z,5.40
2022-10-07T02:19:42.484Z,6.00
2022-10-07T02:22:32.375Z,7.80
2022-10-07T02:25:05.918Z,6.83
2022-10-07T02:30:26.233Z,6.17
2022-10-07T02:33:08.927Z,5.20
2022-10-07T02:35:53.498Z,5.47
2022-10-07T02:38:25.614Z,5.47
2022-10-07T02:41:32.336Z,7.07
2022-10-07T02:44:12.517Z,5.70
2022-10-07T02:47:17.140Z,5.47
2022-10-07T02:49:56.517Z,5.63
2022-10-07T02:52:40.621Z,5.80
2022-10-07T02:55:26.240Z,6.70
2022-10-07T02:58:06.501Z,7.17
2022-10-07T03:00:44.831Z,7.20
2022-10-07T03:03:29.246Z,7.73
2022-10-07T03:06:09.662Z,7.47
2022-10-07T03:08:49.573Z,6.57
2022-10-07T03:11:22.695Z,6.03
2022-10-07T03:13:52.372Z,6.30
2022-10-07T03:16:20.569Z,5.60
2022-10-07T03:18:52.653Z,6.57
2022-10-07T03:21:43.426Z,6.63
2022-10-07T03:24:18.841Z,5.60
2022-10-07T03:26:52.560Z,5.73
2022-10-07T03:29:20.723Z,5.97
2022-10-07T03:31:55.515Z,5.47
2022-10-07T03:34:27.525Z,6.67
2022-10-07T03:37:00.142Z,6.37
2022-10-07T03:39:31.363Z,6.00
2022-10-07T03:42:10.274Z,6.30
2022-10-07T03:47:27.468Z,7.37
2022-10-07T03:49:57.882Z,5.53
2022-10-07T03:52:28.913Z,5.83
2022-10-07T03:55:02.398Z,7.17
2022-10-07T03:57:52.554Z,6.33
2022-10-07T04:00:28.016Z,5.77
2022-10-07T04:03:01.406Z,5.63
2022-10-07T04:05:34.498Z,6.27
2022-10-07T04:08:05.028Z,5.70
2022-10-07T04:10:46.333Z,6.00
2022-10-07T04:13:17.891Z,5.93
2022-10-07T04:15:49.532Z,6.30
2022-10-07T04:18:17.275Z,5.77
2022-10-07T04:23:33.356Z,6.90
2022-10-07T04:26:00.970Z,6.77
2022-10-07T04:28:30.628Z,5.93
2022-10-07T04:31:12.325Z,7.70
2022-10-07T04:33:50.595Z,5.53
2022-10-07T04:36:33.299Z,5.63
2022-10-07T04:39:19.917Z,6.80
2022-10-07T04:41:59.506Z,5.70
2022-10-07T04:44:34.400Z,6.60
2022-10-07T04:47:07.969Z,6.87
2022-10-07T04:49:39.398Z,5.73
2022-10-07T04:52:10.490Z,6.33
2022-10-07T04:54:42.886Z,6.83
2022-10-07T04:57:16.052Z,7.50
2022-10-07T04:59:45.562Z,7.30
2022-10-07T05:02:19.163Z,7.43
2022-10-07T05:04:52.839Z,7.03
2022-10-07T05:07:21.147Z,7.83
2022-10-07T05:09:49.239Z,8.87
2022-10-07T05:12:20.368Z,8.50
2022-10-07T05:14:55.068Z,8.97
2022-10-07T05:17:28.778Z,9.60
2022-10-07T05:19:56.498Z,10.53
2022-10-07T05:22:25.918Z,11.40
2022-10-07T05:24:56.928Z,11.20
2022-10-07T05:27:26.740Z,12.10
2022-10-07T05:29:57.901Z,13.83
2022-10-07T05:32:26.716Z,12.63
2022-10-07T05:34:57.758Z,12.23
2022-10-07T05:37:26.120Z,12.30
2022-10-07T05:39:57.609Z,12.63
2022-10-07T05:42:27.507Z,11.90
2022-10-07T05:45:00.045Z,15.80
2022-10-07T05:47:33.630Z,13.17
2022-10-07T05:50:04.899Z,12.57
2022-10-07T05:52:32.761Z,14.47
2022-10-07T05:55:04.850Z,15.83
2022-10-07T05:57:34.325Z,13.90
2022-10-07T06:00:04.914Z,13.43
2022-10-07T06:02:52.292Z,12.50
2022-10-07T06:05:32.290Z,12.93
2022-10-07T06:08:03.664Z,13.20
2022-10-07T06:10:53.477Z,13.40
2022-10-07T06:13:33.462Z,12.93
2022-10-07T06:16:08.977Z,15.23
2022-10-07T06:18:38.145Z,12.43
2022-10-07T06:21:10.016Z,12.57
2022-10-07T06:23:38.111Z,14.10
2022-10-07T06:26:08.577Z,12.43
2022-10-07T06:28:41.858Z,11.90
2022-10-07T06:31:16.249Z,12.30
2022-10-07T06:33:46.454Z,12.90
2022-10-07T06:36:14.151Z,12.70
2022-10-07T06:39:04.609Z,13.07
2022-10-07T06:41:37.520Z,14.97
2022-10-07T06:44:20.654Z,17.70
2022-10-07T06:46:50.511Z,15.13
2022-10-07T06:49:22.252Z,15.90
2022-10-07T06:51:52.406Z,15.50
2022-10-07T06:54:21.087Z,14.63
2022-10-07T06:56:49.867Z,18.47
2022-10-07T06:59:20.501Z,16.90
2022-10-07T07:02:00.791Z,16.50
2022-10-07T07:04:34.071Z,19.77
2022-10-07T07:07:04.897Z,17.50
2022-10-07T07:09:39.698Z,17.10
2022-10-07T07:12:09.817Z,18.67
2022-10-07T07:14:41.470Z,21.80
2022-10-07T07:17:18.580Z,22.67
2022-10-07T07:19:54.627Z,22.83
2022-10-07T07:22:24.337Z,27.00
2022-10-07T07:24:54.433Z,23.47
2022-10-07T07:27:27.901Z,24.73
2022-10-07T07:30:01.534Z,23.40
2022-10-07T07:32:35.960Z,24.40
2022-10-07T07:35:06.592Z,21.33
2022-10-07T07:37:36.130Z,22.43
2022-10-07T07:40:05.548Z,24.63
2022-10-07T07:42:35.337Z,20.00
2022-10-07T07:45:06.405Z,20.83
2022-10-07T07:47:35.739Z,20.20
2022-10-07T07:50:05.704Z,20.80
2022-10-07T07:52:35.990Z,19.07
2022-10-07T07:55:06.430Z,19.30
2022-10-07T07:57:35.215Z,19.40
2022-10-07T08:00:07.605Z,19.43
2022-10-07T08:03:00.821Z,18.73
2022-10-07T08:05:30.768Z,16.43
2022-10-07T08:08:02.418Z,15.57
2022-10-07T08:10:35.606Z,16.80
2022-10-07T08:13:04.482Z,15.50
2022-10-07T08:15:36.097Z,14.20
2022-10-07T08:18:07.992Z,15.33
2022-10-07T08:20:37.097Z,16.60
2022-10-07T08:23:07.363Z,16.10
2022-10-07T08:25:34.993Z,15.73
2022-10-07T08:28:06.667Z,15.17
2022-10-07T08:30:35.907Z,15.80
2022-10-07T08:33:04.863Z,16.13
2022-10-07T08:35:35.988Z,15.10
2022-10-07T08:38:05.684Z,15.70
2022-10-07T08:40:37.521Z,15.70
2022-10-07T08:43:09.057Z,14.10
2022-10-07T08:45:37.019Z,16.10
2022-10-07T08:48:10.644Z,15.57
2022-10-07T08:51:05.147Z,16.13
2022-10-07T08:53:37.708Z,15.27
2022-10-07T08:56:14.676Z,15.17
2022-10-07T08:59:09.022Z,14.90
2022-10-07T09:01:45.731Z,15.13
2022-10-07T09:07:31.689Z,16.03
2022-10-07T09:10:27.893Z,14.07
2022-10-07T09:13:05.222Z,14.77
2022-10-07T09:15:43.674Z,15.27
2022-10-07T09:18:13.797Z,16.60
2022-10-07T09:20:47.097Z,14.27
2022-10-07T09:23:16.316Z,15.97
2022-10-07T09:25:44.520Z,16.50
2022-10-07T09:28:19.090Z,16.27
2022-10-07T09:30:46.609Z,15.50
2022-10-07T09:33:20.748Z,14.70
2022-10-07T09:36:00.263Z,13.53
2022-10-07T09:38:31.257Z,12.67
2022-10-07T09:41:45.590Z,13.20
2022-10-07T09:44:29.300Z,11.93
2022-10-07T09:46:59.628Z,10.67
2022-10-07T09:49:53.861Z,11.13
2022-10-07T09:52:23.635Z,10.10
2022-10-07T09:55:15.693Z,9.17
2022-10-07T09:58:02.220Z,8.33
2022-10-07T10:00:30.887Z,8.90
2022-10-07T10:03:08.582Z,9.30
2022-10-07T10:05:39.339Z,9.57
2022-10-07T10:08:21.019Z,9.57
2022-10-07T10:10:57.704Z,8.03
2022-10-07T10:13:44.536Z,8.10
2022-10-07T10:16:37.213Z,9.60
2022-10-07T10:19:27.598Z,7.93
2022-10-07T10:22:07.762Z,6.97
2022-10-07T10:24:58.801Z,8.03
2022-10-07T10:27:35.271Z,8.00
2022-10-07T10:30:21.465Z,6.97
2022-10-07T10:33:17.278Z,7.67
2022-10-07T10:36:20.933Z,7.97
2022-10-07T10:39:36.923Z,7.10
2022-10-07T10:42:12.492Z,9.97
2022-10-07T10:45:18.238Z,8.30
2022-10-07T10:48:07.787Z,7.50
2022-10-07T10:51:10.460Z,6.87
2022-10-07T10:54:18.033Z,7.53
2022-10-07T10:56:48.824Z,8.17
2022-10-07T10:59:36.878Z,8.30
2022-10-07T11:02:44.997Z,7.20
2022-10-07T11:05:43.172Z,7.07
2022-10-07T11:08:27.102Z,6.77
2022-10-07T11:11:31.618Z,7.57
2022-10-07T11:14:12.382Z,7.03
2022-10-07T11:16:52.587Z,6.97
2022-10-07T11:19:40.390Z,7.60
2022-10-07T11:22:24.024Z,7.50
2022-10-07T11:25:00.250Z,6.93
2022-10-07T11:27:33.500Z,7.00
2022-10-07T11:30:16.565Z,8.60
2022-10-07T11:33:14.451Z,7.10
2022-10-07T11:35:53.766Z,6.97
2022-10-07T11:38:31.832Z,7.10
2022-10-07T11:41:40.699Z,6.77
2022-10-07T11:44:21.184Z,7.23
2022-10-07T11:46:50.099Z,7.17
2022-10-07T11:49:46.297Z,6.83
2022-10-07T11:52:27.231Z,9.60
2022-10-07T11:55:07.747Z,6.80
2022-10-07T11:57:45.837Z,8.30
2022-10-07T12:00:33.722Z,6.90
2022-10-07T12:03:21.289Z,6.57
2022-10-07T12:05:57.699Z,8.43
2022-10-07T12:08:42.548Z,6.40
2022-10-07T12:11:23.334Z,6.27
2022-10-07T12:13:53.820Z,7.50
2022-10-07T12:16:36.305Z,6.87
2022-10-07T12:19:12.943Z,7.07
2022-10-07T12:22:08.426Z,7.50
2022-10-07T12:24:37.453Z,7.63
2022-10-07T12:27:29.135Z,8.90
2022-10-07T12:30:06.138Z,10.20
2022-10-07T12:32:47.535Z,8.47
2022-10-07T12:35:37.090Z,8.00
2022-10-07T12:38:18.428Z,7.57
2022-10-07T12:41:07.773Z,7.13
2022-10-07T12:43:38.114Z,7.53
2022-10-07T12:46:11.629Z,7.77
2022-10-07T12:49:04.823Z,6.80
2022-10-07T12:51:41.091Z,6.50
2022-10-07T12:54:41.586Z,5.97
2022-10-07T12:57:18.608Z,6.63
2022-10-07T13:00:08.338Z,5.77
2022-10-07T13:03:28.307Z,6.50
2022-10-07T13:06:36.102Z,7.17
2022-10-07T13:09:48.401Z,5.53
2022-10-07T13:12:29.039Z,5.33
2022-10-07T13:15:20.021Z,5.07
2022-10-07T13:18:28.626Z,5.57
2022-10-07T13:21:23.543Z,5.63
2022-10-07T13:23:56.709Z,7.53
2022-10-07T13:26:28.076Z,5.40
2022-10-07T13:29:00.784Z,5.43
2022-10-07T13:31:33.448Z,6.77
2022-10-07T13:34:20.049Z,7.33
2022-10-07T13:36:53.731Z,6.23
2022-10-07T13:39:31.558Z,6.60
2022-10-07T13:42:03.065Z,5.97
2022-10-07T13:44:33.545Z,5.70
2022-10-07T13:47:19.872Z,6.10
2022-10-07T13:49:53.374Z,6.57
2022-10-07T13:52:39.143Z,7.80
2022-10-07T13:55:31.469Z,5.60
2022-10-07T13:58:04.762Z,7.93
2022-10-07T14:00:42.312Z,6.00
2022-10-07T14:03:21.770Z,6.57
2022-10-07T14:05:59.251Z,8.73
2022-10-07T14:08:35.151Z,6.23
2022-10-07T14:11:22.219Z,6.73
2022-10-07T14:13:54.481Z,8.60
2022-10-07T14:19:09.582Z,6.10
2022-10-07T14:21:42.010Z,7.27
2022-10-07T14:24:10.685Z,6.27
2022-10-07T14:26:47.435Z,5.90
2022-10-07T14:29:48.771Z,7.17
2022-10-07T14:32:45.784Z,5.80
2022-10-07T14:35:24.641Z,5.90
2022-10-07T14:37:59.173Z,7.23
2022-10-07T14:40:27.399Z,5.90
2022-10-07T14:42:54.834Z,6.77
2022-10-07T14:45:32.189Z,7.03
2022-10-07T14:48:00.795Z,5.80
2022-10-07T14:50:31.303Z,6.07
2022-10-07T14:53:04.441Z,7.67
2022-10-07T14:55:40.677Z,6.53
2022-10-07T14:58:13.746Z,5.53
2022-10-07T15:00:44.018Z,10.23
2022-10-07T15:03:13.749Z,6.23
2022-10-07T15:05:48.296Z,7.13
2022-10-07T15:08:15.944Z,6.30
2022-10-07T15:10:46.804Z,6.53
2022-10-07T15:13:15.444Z,4.77
2022-10-07T15:15:45.049Z,5.67
2022-10-07T15:18:15.194Z,5.13
2022-10-07T15:20:46.019Z,5.17
2022-10-07T15:23:14.858Z,5.43
2022-10-07T15:25:46.617Z,6.60
2022-10-07T15:28:16.164Z,7.80
2022-10-07T15:30:45.009Z,7.83
2022-10-07T15:33:17.933Z,8.57
2022-10-07T15:35:48.208Z,5.63
2022-10-07T15:38:18.385Z,5.87
2022-10-07T15:40:59.698Z,6.50
2022-10-07T15:43:29.361Z,5.60
2022-10-07T15:45:59.393Z,5.67
2022-10-07T15:48:29.353Z,8.47
2022-10-07T15:50:57.641Z,7.40
2022-10-07T15:53:26.168Z,7.27
2022-10-07T15:55:58.245Z,5.67
2022-10-07T15:58:30.510Z,9.17
2022-10-07T16:03:52.422Z,7.27
2022-10-07T16:06:23.686Z,8.20
2022-10-07T16:08:53.795Z,7.97
2022-10-07T16:11:24.270Z,8.83
2022-10-07T16:13:56.819Z,6.80
2022-10-07T16:16:28.726Z,6.90
2022-10-07T16:18:58.555Z,6.60
2022-10-07T16:21:31.228Z,8.63
2022-10-07T16:24:03.079Z,9.50
2022-10-07T16:26:35.932Z,6.70
2022-10-07T16:29:28.180Z,7.33
2022-10-07T16:31:59.051Z,8.63
2022-10-07T16:34:31.303Z,9.43
2022-10-07T16:37:00.301Z,7.87
2022-10-07T16:39:29.789Z,7.40
2022-10-07T16:42:00.083Z,8.77
2022-10-07T16:44:30.459Z,10.67
2022-10-07T16:49:41.274Z,8.17
2022-10-07T16:54:55.404Z,8.83
2022-10-07T16:57:26.580Z,8.07
2022-10-07T16:59:58.161Z,7.77
2022-10-07T17:02:30.423Z,8.17
2022-10-07T17:04:59.341Z,9.07
2022-10-07T17:07:32.887Z,9.17
2022-10-07T17:10:14.472Z,8.77
2022-10-07T17:12:44.257Z,8.77
2022-10-07T17:15:12.148Z,10.17
2022-10-07T17:17:41.779Z,8.53
2022-10-07T17:20:12.218Z,8.57
2022-10-07T17:22:43.370Z,10.63
2022-10-07T17:25:12.537Z,8.57
2022-10-07T17:30:24.461Z,8.47
2022-10-07T17:32:54.708Z,8.07
2022-10-07T17:35:24.423Z,8.27
2022-10-07T17:37:54.864Z,8.47
2022-10-07T17:40:24.426Z,9.50
2022-10-07T17:42:53.481Z,8.97
2022-10-07T17:45:24.042Z,9.10
2022-10-07T17:47:54.946Z,8.63
2022-10-07T17:50:24.807Z,10.30
2022-10-07T17:52:54.587Z,8.93
2022-10-07T17:55:25.434Z,9.67
2022-10-07T17:57:54.174Z,8.93
2022-10-07T18:00:27.027Z,8.63
2022-10-07T18:02:57.807Z,9.33
2022-10-07T18:05:27.579Z,8.67
2022-10-07T18:07:58.241Z,9.23
2022-10-07T18:10:29.445Z,10.40
2022-10-07T18:13:20.633Z,9.37
2022-10-07T18:16:00.542Z,9.10
2022-10-07T18:18:31.724Z,9.17
2022-10-07T18:21:10.082Z,9.67
2022-10-07T18:23:39.271Z,10.20
2022-10-07T18:26:10.515Z,9.57
2022-10-07T18:28:42.761Z,9.67
2022-10-07T18:31:15.874Z,9.67
2022-10-07T18:33:46.211Z,10.20
2022-10-07T18:36:23.890Z,9.50
2022-10-07T18:39:05.703Z,9.57
2022-10-07T18:41:35.287Z,9.80
2022-10-07T18:44:08.550Z,9.40
2022-10-07T18:46:42.988Z,9.03
2022-10-07T18:49:15.371Z,10.33
2022-10-07T18:51:52.545Z,10.80
2022-10-07T18:54:22.901Z,9.40
2022-10-07T18:56:53.983Z,9.97
2022-10-07T18:59:25.222Z,11.00
2022-10-07T19:01:56.218Z,10.67
2022-10-07T19:04:43.558Z,10.03
2022-10-07T19:07:13.151Z,10.03
2022-10-07T19:09:46.244Z,10.07
2022-10-07T19:12:36.936Z,10.13
2022-10-07T19:15:08.650Z,10.53
2022-10-07T19:20:22.514Z,10.47
2022-10-07T19:22:51.214Z,10.13
2022-10-07T19:25:44.214Z,10.47
2022-10-07T19:28:15.866Z,10.33
2022-10-07T19:30:53.821Z,11.10
2022-10-07T19:33:22.142Z,10.23
2022-10-07T19:38:47.070Z,9.60
2022-10-07T19:41:20.662Z,10.47
2022-10-07T19:43:51.702Z,10.90
2022-10-07T19:46:22.624Z,10.13
2022-10-07T19:49:00.759Z,10.70
2022-10-07T19:51:35.825Z,10.10
2022-10-07T19:54:13.350Z,10.30
2022-10-07T19:56:46.963Z,10.43
2022-10-07T19:59:17.562Z,10.93
2022-10-07T20:01:47.651Z,10.70
2022-10-07T20:07:17.423Z,10.70
2022-10-07T20:09:46.922Z,11.10
2022-10-07T20:12:19.000Z,11.23
2022-10-07T20:14:50.052Z,10.70
2022-10-07T20:17:20.907Z,11.17
2022-10-07T20:19:51.679Z,12.53
2022-10-07T20:22:21.630Z,10.97
2022-10-07T20:24:53.209Z,11.07
2022-10-07T20:27:26.571Z,10.97
2022-10-07T20:30:01.635Z,11.67
2022-10-07T20:32:36.515Z,11.23
2022-10-07T20:35:07.307Z,10.87
2022-10-07T20:37:36.295Z,11.60
2022-10-07T20:40:25.630Z,11.00
2022-10-07T20:42:56.927Z,11.10
2022-10-07T20:45:25.694Z,11.67
2022-10-07T20:47:58.284Z,11.97
2022-10-07T20:50:28.097Z,12.03
2022-10-07T20:52:58.571Z,12.00
2022-10-07T20:55:27.103Z,12.00
2022-10-07T20:57:57.822Z,12.30
2022-10-07T21:00:29.772Z,12.37
2022-10-07T21:03:00.813Z,12.17
2022-10-07T21:05:31.131Z,12.23
2022-10-07T21:08:01.177Z,12.23
2022-10-07T21:10:31.452Z,12.10
2022-10-07T21:13:02.964Z,11.93
2022-10-07T21:15:30.968Z,12.43
2022-10-07T21:18:01.621Z,11.90
2022-10-07T21:20:32.710Z,12.53
2022-10-07T21:23:04.025Z,11.93
2022-10-07T21:26:02.692Z,11.93
2022-10-07T21:28:40.286Z,11.63
2022-10-07T21:31:12.092Z,12.17
2022-10-07T21:33:40.443Z,12.47
2022-10-07T21:36:19.667Z,12.13
2022-10-07T21:38:55.933Z,13.10
2022-10-07T21:41:26.311Z,12.20
2022-10-07T21:43:58.310Z,13.03
2022-10-07T21:46:27.646Z,13.77
2022-10-07T21:48:56.721Z,13.77
2022-10-07T21:51:27.060Z,14.73
2022-10-07T21:53:57.663Z,15.17
2022-10-07T21:56:29.346Z,15.07
2022-10-07T21:58:59.609Z,14.83
2022-10-07T22:01:27.275Z,15.33
2022-10-07T22:03:59.971Z,13.30
2022-10-07T22:06:47.495Z,13.87
2022-10-07T22:09:17.394Z,13.40
2022-10-07T22:11:44.717Z,13.03
2022-10-07T22:14:13.007Z,13.60
2022-10-07T22:16:41.237Z,14.97
2022-10-07T22:19:08.688Z,16.03
2022-10-07T22:21:40.036Z,15.67
2022-10-07T22:24:09.106Z,15.87
2022-10-07T22:26:40.230Z,15.33
2022-10-07T22:29:11.064Z,14.87
2022-10-07T22:31:38.723Z,14.47
2022-10-07T22:34:06.727Z,14.93
2022-10-07T22:36:35.350Z,14.20
2022-10-07T22:39:02.920Z,14.40
2022-10-07T22:41:30.987Z,15.43
2022-10-07T22:43:59.555Z,13.57
2022-10-07T22:46:28.423Z,14.63
2022-10-07T22:48:58.156Z,14.40
2022-10-07T22:51:29.298Z,14.10
2022-10-07T22:53:57.452Z,14.53
2022-10-07T22:56:28.010Z,15.20
2022-10-07T22:59:00.868Z,14.83
2022-10-07T23:01:30.262Z,14.27
2022-10-07T23:04:00.846Z,14.57
2022-10-07T23:06:31.726Z,14.80
2022-10-07T23:09:00.379Z,14.50
2022-10-07T23:11:30.178Z,13.83
2022-10-07T23:13:58.094Z,14.37
2022-10-07T23:16:29.449Z,14.60
2022-10-07T23:18:58.733Z,14.17
2022-10-07T23:21:32.394Z,14.90
2022-10-07T23:24:05.949Z,13.97
2022-10-07T23:26:36.057Z,14.93
2022-10-07T23:29:03.733Z,15.00
2022-10-07T23:31:32.335Z,15.10
2022-10-07T23:34:03.007Z,14.37
2022-10-07T23:36:31.294Z,13.57
2022-10-07T23:39:00.593Z,14.37
2022-10-07T23:41:30.276Z,14.47
2022-10-07T23:44:00.030Z,14.43
2022-10-07T23:46:32.954Z,14.30
2022-10-07T23:49:00.863Z,14.03
2022-10-07T23:51:29.544Z,14.77
2022-10-07T23:53:57.560Z,14.90
2022-10-07T23:56:25.201Z,13.97
2022-10-07T23:58:52.689Z,15.03
